Time;durP1;ratioP1;P1;durP2;ratioP2;P2;SDS_P1;SDS_P2;PMS_P1;PMS_P2;Temp;Humidity;BMP_temperature;BMP_pressure;BME280_temperature;BME280_humidity;BME280_pressure;Samples;Min_cycle;Max_cycle;Signal;HPM_P1;HPM_P2
2023/09/08 00:00:59;;;;;;;6.55;3.72;;;21.70;95.40;;;;;;5013633;28;45363;-62
2023/09/08 00:03:25;;;;;;;6.93;4.07;;;21.60;95.60;;;;;;5004933;28;45332;-62
2023/09/08 00:05:52;;;;;;;5.90;4.05;;;21.50;96.00;;;;;;5018602;28;44655;-63
2023/09/08 00:08:19;;;;;;;7.28;3.72;;;21.50;95.90;;;;;;5017760;28;45057;-62
2023/09/08 00:10:47;;;;;;;8.68;3.92;;;21.50;96.00;;;;;;5019417;28;45259;-62
2023/09/08 00:13:14;;;;;;;8.85;4.13;;;21.50;95.90;;;;;;5022865;28;45164;-62
2023/09/08 00:15:40;;;;;;;7.53;3.67;;;21.50;96.30;;;;;;5021542;28;45166;-63
2023/09/08 00:18:07;;;;;;;11.57;4.63;;;21.50;95.90;;;;;;5020321;28;45155;-62
2023/09/08 00:20:34;;;;;;;4.63;3.45;;;21.50;96.00;;;;;;5020682;28;46359;-62
2023/09/08 00:23:01;;;;;;;6.25;3.60;;;21.40;96.00;;;;;;5023086;28;45077;-62
2023/09/08 00:25:28;;;;;;;4.80;3.42;;;21.40;96.20;;;;;;5016966;28;45125;-62
2023/09/08 00:27:56;;;;;;;6.53;3.92;;;21.40;96.40;;;;;;5015652;28;44749;-62
2023/09/08 00:30:23;;;;;;;7.18;4.10;;;21.40;96.80;;;;;;5020602;28;46283;-63
2023/09/08 00:32:50;;;;;;;7.13;4.30;;;21.40;96.70;;;;;;5013312;28;45075;-62
2023/09/08 00:35:17;;;;;;;7.03;4.07;;;21.40;96.80;;;;;;5021769;28;45083;-62
2023/09/08 00:37:43;;;;;;;5.90;3.97;;;21.40;96.80;;;;;;5022464;28;44777;-62
2023/09/08 00:40:11;;;;;;;5.97;3.65;;;21.30;96.80;;;;;;5024824;28;46574;-62
2023/09/08 00:42:38;;;;;;;4.63;3.50;;;21.40;97.00;;;;;;5019391;28;45174;-62
2023/09/08 00:45:06;;;;;;;4.82;3.55;;;21.50;96.90;;;;;;5018514;28;45223;-62
2023/09/08 00:47:34;;;;;;;5.05;3.47;;;21.70;96.60;;;;;;5022238;28;45223;-62
2023/09/08 00:50:02;;;;;;;4.60;3.35;;;21.90;96.10;;;;;;5017465;28;45212;-62
2023/09/08 00:52:32;;;;;;;4.13;3.15;;;21.90;95.90;;;;;;5020810;28;44693;-62
2023/09/08 00:54:59;;;;;;;3.63;2.80;;;22.00;95.70;;;;;;5023596;28;45306;-62
2023/09/08 00:57:26;;;;;;;3.70;3.13;;;22.10;95.80;;;;;;5022082;28;45256;-62
2023/09/08 00:59:54;;;;;;;4.20;3.10;;;22.10;95.50;;;;;;5024189;28;46228;-62
2023/09/08 01:02:23;;;;;;;3.95;2.97;;;22.20;95.50;;;;;;5013870;28;45128;-62
2023/09/08 01:04:50;;;;;;;4.43;3.45;;;22.20;95.40;;;;;;5005747;28;45108;-62
2023/09/08 01:07:20;;;;;;;4.57;3.00;;;22.30;95.20;;;;;;5011181;28;45290;-62
2023/09/08 01:09:48;;;;;;;3.65;2.30;;;22.20;95.00;;;;;;5012218;28;46387;-62
2023/09/08 01:12:15;;;;;;;4.18;2.72;;;22.30;95.20;;;;;;5022893;28;45492;-63
2023/09/08 01:14:42;;;;;;;3.30;2.58;;;22.30;94.90;;;;;;5023853;28;45177;-63
2023/09/08 01:17:09;;;;;;;3.30;2.38;;;22.30;95.10;;;;;;5020953;28;45187;-62
2023/09/08 01:19:38;;;;;;;2.85;2.40;;;22.40;94.90;;;;;;5023338;28;45283;-63
2023/09/08 01:22:39;;;;;;;3.35;2.40;;;22.40;94.90;;;;;;5023935;28;44627;-62
2023/09/08 01:25:13;;;;;;;3.25;2.55;;;22.40;95.10;;;;;;5018926;28;44584;-62
2023/09/08 01:27:46;;;;;;;2.83;2.13;;;22.40;94.90;;;;;;5023355;28;45053;-63
2023/09/08 01:30:15;;;;;;;3.00;2.35;;;22.40;95.10;;;;;;5021942;28;46995;-62
2023/09/08 01:32:42;;;;;;;2.90;2.20;;;22.40;94.90;;;;;;5017084;28;45262;-62
2023/09/08 01:35:10;;;;;;;3.67;2.55;;;22.40;95.10;;;;;;5024496;28;45166;-62
2023/09/08 01:37:36;;;;;;;4.65;2.53;;;22.40;94.90;;;;;;5024370;28;45172;-62
2023/09/08 01:40:04;;;;;;;3.83;2.67;;;22.30;94.90;;;;;;5021989;28;45298;-62
2023/09/08 01:42:32;;;;;;;5.10;3.00;;;22.40;95.00;;;;;;5021169;28;45096;-62
2023/09/08 01:44:59;;;;;;;2.83;2.45;;;22.40;94.80;;;;;;5015083;28;45033;-63
2023/09/08 01:47:25;;;;;;;3.15;2.50;;;22.40;94.90;;;;;;5011353;28;46007;-62
2023/09/08 01:49:52;;;;;;;5.28;2.58;;;22.40;94.90;;;;;;5013315;28;45192;-62
2023/09/08 01:52:19;;;;;;;3.25;2.50;;;22.30;94.90;;;;;;5023720;28;45116;-62
2023/09/08 01:54:46;;;;;;;3.50;2.75;;;22.40;94.90;;;;;;5023211;28;45152;-62
2023/09/08 01:57:12;;;;;;;3.38;2.40;;;22.50;95.00;;;;;;5022325;28;45084;-62
2023/09/08 01:59:41;;;;;;;4.45;2.97;;;22.40;94.90;;;;;;5019836;28;48113;-62
2023/09/08 02:02:08;;;;;;;2.80;2.17;;;22.40;94.60;;;;;;5021507;28;45209;-63
2023/09/08 02:04:34;;;;;;;3.80;2.53;;;22.40;94.90;;;;;;5022589;28;44573;-62
2023/09/08 02:07:01;;;;;;;3.42;2.22;;;22.50;95.00;;;;;;5024051;28;45127;-63
2023/09/08 02:09:32;;;;;;;2.50;2.15;;;22.50;95.00;;;;;;5011625;28;47610;-63
2023/09/08 02:11:58;;;;;;;2.97;2.40;;;22.50;94.70;;;;;;5012229;28;45151;-63
2023/09/08 02:14:25;;;;;;;5.88;3.60;;;22.50;95.40;;;;;;5023194;28;45237;-63
2023/09/08 02:16:53;;;;;;;3.47;2.30;;;22.40;94.70;;;;;;5019092;28;45255;-62
2023/09/08 02:19:20;;;;;;;3.85;3.10;;;22.40;94.90;;;;;;5021136;28;48014;-63
2023/09/08 02:21:47;;;;;;;3.92;2.70;;;22.40;94.90;;;;;;5024282;28;45148;-62
2023/09/08 02:24:14;;;;;;;5.97;3.33;;;22.30;95.50;;;;;;5021756;28;45092;-63
2023/09/08 02:26:41;;;;;;;3.35;2.58;;;22.30;94.90;;;;;;5020903;28;45191;-62
2023/09/08 02:29:08;;;;;;;3.78;2.42;;;22.20;94.90;;;;;;5010969;28;45136;-63
2023/09/08 02:31:35;;;;;;;15.98;2.63;;;22.20;94.90;;;;;;5018324;28;45072;-63
2023/09/08 02:34:04;;;;;;;4.75;2.90;;;22.30;95.30;;;;;;5015241;28;45262;-63
2023/09/08 02:36:31;;;;;;;4.40;2.97;;;22.30;94.90;;;;;;5010244;28;45150;-62
2023/09/08 02:38:58;;;;;;;2.63;2.20;;;22.30;94.40;;;;;;5014919;28;46617;-63
2023/09/08 02:41:25;;;;;;;4.47;3.05;;;22.30;95.30;;;;;;5017423;28;45255;-63
2023/09/08 02:43:52;;;;;;;4.55;3.03;;;22.20;94.90;;;;;;5020178;28;45235;-63
2023/09/08 02:46:18;;;;;;;3.35;2.30;;;22.20;95.20;;;;;;5011138;28;45175;-63
2023/09/08 02:48:45;;;;;;;5.13;3.22;;;22.30;95.20;;;;;;5020356;28;45314;-63
2023/09/08 02:51:13;;;;;;;4.07;2.80;;;22.30;94.90;;;;;;5015658;28;45176;-62
2023/09/08 02:53:40;;;;;;;5.13;3.10;;;22.40;94.90;;;;;;5018597;28;45176;-63
2023/09/08 02:56:09;;;;;;;3.33;2.60;;;22.30;94.50;;;;;;5017147;28;45215;-62
2023/09/08 02:58:36;;;;;;;5.15;3.70;;;22.20;94.90;;;;;;5020172;28;45251;-63
2023/09/08 03:01:13;;;;;;;6.15;3.05;;;22.20;95.40;;;;;;5020518;28;45172;-63
2023/09/08 03:03:40;;;;;;;3.63;2.75;;;22.30;94.90;;;;;;5016380;28;45258;-62
2023/09/08 03:06:07;;;;;;;3.40;2.75;;;22.20;94.90;;;;;;5019123;28;45292;-62
2023/09/08 03:08:36;;;;;;;3.58;2.95;;;22.30;95.10;;;;;;5015283;28;47325;-63
2023/09/08 03:11:04;;;;;;;4.70;3.15;;;22.10;94.80;;;;;;5019020;28;44671;-62
2023/09/08 03:13:31;;;;;;;3.92;2.88;;;22.00;94.80;;;;;;5021513;28;45271;-63
2023/09/08 03:15:57;;;;;;;3.83;2.60;;;22.00;95.20;;;;;;5012949;28;45187;-62
2023/09/08 03:18:24;;;;;;;3.42;2.65;;;22.10;95.50;;;;;;5018739;28;46380;-62
2023/09/08 03:20:51;;;;;;;6.22;2.90;;;22.20;94.90;;;;;;5013733;28;45227;-63
2023/09/08 03:23:18;;;;;;;4.65;3.30;;;22.20;94.90;;;;;;5018143;28;45195;-62
2023/09/08 03:25:46;;;;;;;3.63;2.85;;;22.30;94.90;;;;;;5009455;28;44663;-62
2023/09/08 03:28:13;;;;;;;7.25;4.15;;;22.20;94.90;;;;;;5010782;28;46954;-62
2023/09/08 03:30:40;;;;;;;5.32;3.80;;;22.10;93.90;;;;;;5016010;28;45425;-63
2023/09/08 03:33:07;;;;;;;5.63;3.70;;;21.60;94.60;;;;;;5014365;28;45100;-62
2023/09/08 03:35:33;;;;;;;7.88;4.05;;;21.50;95.10;;;;;;5012815;28;45057;-63
2023/09/08 03:38:00;;;;;;;4.57;3.70;;;21.30;95.20;;;;;;5006762;28;45184;-63
2023/09/08 03:40:27;;;;;;;6.38;3.75;;;21.20;95.70;;;;;;5014552;28;45241;-63
2023/09/08 03:42:55;;;;;;;8.43;4.28;;;21.00;96.20;;;;;;5020346;28;45173;-62
2023/09/08 03:45:22;;;;;;;5.18;3.60;;;20.80;96.60;;;;;;5013468;28;45155;-63
2023/09/08 03:47:49;;;;;;;6.05;4.32;;;20.80;96.70;;;;;;5020630;28;46169;-63
2023/09/08 03:50:16;;;;;;;6.30;4.43;;;20.80;96.80;;;;;;5019106;28;45286;-63
2023/09/08 03:52:42;;;;;;;11.30;4.10;;;20.80;96.80;;;;;;5021508;28;44741;-63
2023/09/08 03:55:09;;;;;;;8.73;4.03;;;20.90;96.90;;;;;;5018307;28;45239;-63
2023/09/08 03:57:36;;;;;;;8.25;3.95;;;20.80;96.60;;;;;;5011964;28;46307;-63
2023/09/08 04:00:06;;;;;;;6.93;4.05;;;20.70;97.10;;;;;;5016163;28;45709;-63
2023/09/08 04:02:33;;;;;;;7.35;4.07;;;20.70;96.80;;;;;;5010277;28;45193;-63
2023/09/08 04:04:59;;;;;;;6.85;3.97;;;20.70;97.20;;;;;;5011612;28;45515;-63
2023/09/08 04:07:26;;;;;;;7.32;3.78;;;20.70;97.10;;;;;;5017817;28;45125;-63
2023/09/08 04:09:53;;;;;;;6.18;4.28;;;20.70;97.10;;;;;;5021625;28;45105;-63
2023/09/08 04:12:20;;;;;;;7.82;4.13;;;20.70;97.30;;;;;;5022731;28;44650;-63
2023/09/08 04:14:47;;;;;;;7.05;4.18;;;20.60;97.40;;;;;;5019391;28;45112;-62
2023/09/08 04:17:15;;;;;;;9.73;4.28;;;20.50;97.40;;;;;;5018244;28;45266;-62
2023/09/08 04:19:42;;;;;;;7.80;4.38;;;20.60;97.60;;;;;;5018203;28;45064;-62
2023/09/08 04:22:09;;;;;;;8.27;4.18;;;20.60;97.20;;;;;;5017448;28;45149;-62
2023/09/08 04:24:36;;;;;;;8.73;4.65;;;20.60;97.20;;;;;;5023685;28;45371;-62
2023/09/08 04:27:04;;;;;;;7.35;4.13;;;20.60;97.50;;;;;;5014728;28;47269;-63
2023/09/08 04:29:31;;;;;;;6.22;4.07;;;20.60;97.50;;;;;;5017612;28;45164;-63
2023/09/08 04:31:57;;;;;;;7.63;4.15;;;20.90;96.80;;;;;;5010095;28;45353;-62
2023/09/08 04:34:26;;;;;;;5.28;3.38;;;20.90;97.20;;;;;;5016107;28;45115;-62
2023/09/08 04:36:52;;;;;;;7.03;4.10;;;21.10;97.10;;;;;;5006187;28;45154;-62
2023/09/08 04:39:19;;;;;;;7.28;3.78;;;21.20;96.20;;;;;;5012449;28;45140;-62
2023/09/08 04:41:46;;;;;;;8.57;3.70;;;21.30;95.80;;;;;;5018208;28;45138;-62
2023/09/08 04:44:13;;;;;;;5.80;4.05;;;21.40;96.30;;;;;;5024873;28;45164;-63
2023/09/08 04:46:39;;;;;;;4.60;3.60;;;21.70;96.50;;;;;;5019289;28;46337;-62
2023/09/08 04:49:06;;;;;;;6.45;3.58;;;21.80;94.70;;;;;;5024675;28;45171;-62
2023/09/08 04:51:34;;;;;;;5.47;3.90;;;21.80;92.40;;;;;;5025744;28;45075;-62
2023/09/08 04:54:01;;;;;;;5.80;3.20;;;21.90;92.10;;;;;;5021987;28;45240;-62
2023/09/08 04:56:28;;;;;;;13.35;3.97;;;22.00;91.40;;;;;;5023024;28;46264;-61
2023/09/08 04:58:55;;;;;;;14.23;3.75;;;22.00;91.70;;;;;;5015059;28;45093;-64
2023/09/08 05:01:22;;;;;;;9.18;3.33;;;22.10;91.30;;;;;;5015385;28;45106;-64
2023/09/08 05:03:49;;;;;;;6.80;3.38;;;22.20;91.40;;;;;;5023139;28;45179;-63
2023/09/08 05:06:16;;;;;;;7.75;3.78;;;22.10;91.90;;;;;;5022389;28;44951;-63
2023/09/08 05:08:44;;;;;;;4.78;3.38;;;22.00;92.00;;;;;;5010985;28;45091;-61
2023/09/08 05:11:11;;;;;;;6.00;3.30;;;22.00;93.10;;;;;;5018278;28;45296;-63
2023/09/08 05:13:38;;;;;;;4.30;3.08;;;22.00;93.30;;;;;;5019984;28;45166;-63
2023/09/08 05:16:11;;;;;;;5.88;2.92;;;21.90;93.40;;;;;;5018756;28;46356;-64
2023/09/08 05:18:39;;;;;;;5.75;3.65;;;21.90;93.50;;;;;;5020109;28;45159;-62
2023/09/08 05:21:05;;;;;;;6.20;3.60;;;21.80;93.10;;;;;;5024611;28;45286;-63
2023/09/08 05:23:32;;;;;;;5.00;3.42;;;21.80;93.00;;;;;;5020269;28;45401;-64
2023/09/08 05:26:00;;;;;;;5.85;3.90;;;21.40;93.60;;;;;;5014430;28;47043;-65
2023/09/08 05:28:27;;;;;;;7.65;3.70;;;21.30;94.20;;;;;;5009469;28;45149;-64
2023/09/08 05:30:55;;;;;;;6.05;4.00;;;21.20;94.50;;;;;;5009844;28;45116;-65
2023/09/08 05:33:21;;;;;;;6.35;3.78;;;21.00;94.90;;;;;;5014840;28;45119;-64
2023/09/08 05:35:48;;;;;;;6.20;3.70;;;21.00;95.00;;;;;;5011099;28;44967;-64
2023/09/08 05:38:15;;;;;;;5.82;3.78;;;21.10;95.00;;;;;;5021833;28;45072;-64
2023/09/08 05:40:42;;;;;;;6.05;4.13;;;21.20;94.50;;;;;;5019964;28;45135;-64
2023/09/08 05:43:11;;;;;;;5.50;3.90;;;21.10;94.80;;;;;;5020237;28;45218;-64
2023/09/08 05:45:37;;;;;;;6.65;3.53;;;21.10;94.60;;;;;;5020895;28;47953;-64
2023/09/08 05:48:05;;;;;;;6.22;3.95;;;20.90;95.20;;;;;;5017024;28;45202;-64
2023/09/08 05:50:32;;;;;;;8.35;4.15;;;20.90;95.30;;;;;;5023086;28;45286;-64
2023/09/08 05:52:58;;;;;;;4.72;3.75;;;20.90;95.30;;;;;;5018342;28;45299;-64
2023/09/08 05:55:25;;;;;;;6.25;3.30;;;20.90;95.90;;;;;;5019777;28;45145;-64
2023/09/08 05:57:52;;;;;;;5.32;3.92;;;20.90;96.00;;;;;;5022243;28;45148;-64
2023/09/08 06:00:20;;;;;;;5.90;3.72;;;21.00;95.80;;;;;;5020393;28;45061;-64
2023/09/08 06:02:47;;;;;;;8.93;3.50;;;21.10;95.40;;;;;;5016103;28;45264;-64
2023/09/08 06:05:13;;;;;;;10.35;3.58;;;21.20;95.50;;;;;;5023814;28;48067;-63
2023/09/08 06:07:40;;;;;;;5.95;3.22;;;21.20;95.00;;;;;;5024550;28;45253;-64
2023/09/08 06:10:08;;;;;;;5.57;3.72;;;21.30;95.80;;;;;;5023434;28;45089;-64
2023/09/08 06:12:35;;;;;;;3.67;3.15;;;21.40;95.20;;;;;;5023799;28;45111;-63
2023/09/08 06:15:03;;;;;;;5.97;3.50;;;21.60;94.90;;;;;;5019610;28;46408;-64
2023/09/08 06:17:31;;;;;;;3.72;3.30;;;21.60;94.80;;;;;;5023247;28;45108;-63
2023/09/08 06:19:57;;;;;;;6.30;3.60;;;21.80;96.00;;;;;;5011980;28;45207;-64
2023/09/08 06:22:24;;;;;;;4.43;3.70;;;21.80;95.30;;;;;;5020478;28;45302;-64
2023/09/08 06:24:51;;;;;;;6.78;3.63;;;22.00;95.80;;;;;;5020307;28;47171;-63
2023/09/08 06:27:18;;;;;;;6.68;3.13;;;21.90;95.40;;;;;;5014439;28;45375;-64
2023/09/08 06:29:45;;;;;;;5.78;3.20;;;21.80;94.70;;;;;;5015203;28;45202;-64
2023/09/08 06:32:12;;;;;;;5.25;3.50;;;21.80;94.70;;;;;;5020880;28;45302;-64
2023/09/08 06:34:40;;;;;;;5.13;3.72;;;21.80;95.30;;;;;;5014234;28;45192;-64
2023/09/08 06:37:07;;;;;;;5.00;2.95;;;21.90;94.60;;;;;;5022806;28;45561;-64
2023/09/08 06:39:33;;;;;;;6.28;3.38;;;21.90;94.40;;;;;;5015796;28;45139;-64
2023/09/08 06:42:00;;;;;;;5.13;3.50;;;21.80;94.30;;;;;;5022697;28;44663;-64
2023/09/08 06:44:27;;;;;;;4.40;3.08;;;22.00;94.50;;;;;;5016708;28;45402;-63
2023/09/08 06:46:54;;;;;;;3.88;2.85;;;22.00;94.50;;;;;;5016686;28;45091;-63
2023/09/08 06:49:21;;;;;;;3.38;2.63;;;22.10;94.40;;;;;;5016152;28;45272;-63
2023/09/08 06:51:49;;;;;;;4.28;2.92;;;22.20;94.30;;;;;;5020454;28;45235;-64
2023/09/08 06:54:16;;;;;;;4.30;2.92;;;22.30;94.30;;;;;;5023399;28;45207;-64
2023/09/08 06:56:42;;;;;;;4.65;2.95;;;22.30;94.00;;;;;;5020098;28;45163;-63
2023/09/08 06:59:09;;;;;;;5.65;2.67;;;22.30;94.10;;;;;;5024378;28;45097;-63
2023/09/08 07:01:36;;;;;;;4.25;2.78;;;22.40;94.20;;;;;;5020427;28;45065;-64
2023/09/08 07:04:03;;;;;;;3.88;2.72;;;22.40;94.20;;;;;;5012569;28;46767;-64
2023/09/08 07:06:30;;;;;;;3.05;2.33;;;22.50;94.20;;;;;;5015228;28;45159;-64
2023/09/08 07:08:58;;;;;;;3.35;2.58;;;22.50;94.20;;;;;;5013772;28;44615;-64
2023/09/08 07:11:25;;;;;;;3.95;2.13;;;22.50;94.20;;;;;;5015864;28;44753;-64
2023/09/08 07:13:51;;;;;;;5.80;2.70;;;22.50;94.00;;;;;;5021554;28;46372;-64
2023/09/08 07:16:18;;;;;;;4.13;2.38;;;22.50;94.10;;;;;;5011382;28;45216;-64
2023/09/08 07:18:45;;;;;;;4.70;2.50;;;22.50;94.00;;;;;;5020509;28;45104;-64
2023/09/08 07:21:12;;;;;;;3.72;2.53;;;22.60;94.20;;;;;;5014834;28;45306;-64
2023/09/08 07:23:39;;;;;;;3.17;2.40;;;22.60;94.20;;;;;;5019937;28;45187;-64
2023/09/08 07:26:07;;;;;;;2.72;2.20;;;22.50;94.30;;;;;;5012559;28;45115;-64
2023/09/08 07:28:34;;;;;;;3.95;2.53;;;22.50;94.30;;;;;;5014676;28;45111;-65
2023/09/08 07:31:04;;;;;;;3.08;2.40;;;22.50;94.60;;;;;;5022446;28;45167;-64
2023/09/08 07:33:31;;;;;;;5.88;2.83;;;22.60;94.30;;;;;;5008856;28;46463;-64
2023/09/08 07:35:58;;;;;;;3.13;2.38;;;22.60;94.90;;;;;;5018328;28;45161;-66
2023/09/08 07:38:25;;;;;;;3.42;2.55;;;22.60;94.40;;;;;;5021982;28;45204;-64
2023/09/08 07:40:52;;;;;;;3.30;2.20;;;22.50;94.40;;;;;;5020677;28;45116;-65
2023/09/08 07:43:20;;;;;;;3.90;2.45;;;22.50;94.60;;;;;;5019242;28;45166;-65
2023/09/08 07:45:47;;;;;;;2.95;2.35;;;22.60;94.60;;;;;;5020256;28;45130;-65
2023/09/08 07:48:14;;;;;;;3.60;2.63;;;22.50;94.60;;;;;;5019263;28;45223;-65
2023/09/08 07:50:40;;;;;;;3.53;2.58;;;22.50;94.60;;;;;;5023682;28;45533;-65
2023/09/08 07:53:07;;;;;;;2.95;2.38;;;22.50;94.60;;;;;;5025592;28;45253;-65
2023/09/08 07:55:34;;;;;;;3.78;2.70;;;22.50;94.70;;;;;;5025162;28;45176;-65
2023/09/08 07:58:03;;;;;;;2.83;2.20;;;22.50;94.70;;;;;;5015194;28;45088;-65
2023/09/08 08:00:31;;;;;;;3.35;2.35;;;22.60;94.80;;;;;;5028883;28;45132;-65
2023/09/08 08:02:58;;;;;;;4.68;2.80;;;22.60;94.60;;;;;;5025707;28;45161;-65
2023/09/08 08:05:26;;;;;;;2.97;2.30;;;22.60;94.50;;;;;;5024612;28;45068;-64
2023/09/08 08:07:53;;;;;;;3.08;2.15;;;22.60;94.60;;;;;;5018745;28;45161;-65
2023/09/08 08:10:20;;;;;;;4.55;2.45;;;22.70;94.40;;;;;;5021031;28;45285;-64
2023/09/08 08:12:47;;;;;;;3.13;2.10;;;22.70;94.40;;;;;;5020379;28;45190;-64
2023/09/08 08:15:13;;;;;;;3.22;2.47;;;22.70;94.50;;;;;;5026156;28;45079;-64
2023/09/08 08:17:42;;;;;;;2.95;2.33;;;22.70;94.50;;;;;;5021864;28;45050;-64
2023/09/08 08:20:16;;;;;;;5.43;2.33;;;22.70;94.40;;;;;;5025972;28;45068;-64
2023/09/08 08:22:43;;;;;;;3.72;2.40;;;22.70;94.50;;;;;;5020740;28;47123;-65
2023/09/08 08:25:10;;;;;;;3.42;2.63;;;22.70;94.60;;;;;;5022973;28;45259;-65
2023/09/08 08:27:37;;;;;;;3.17;2.45;;;22.80;94.50;;;;;;5023580;28;45170;-65
2023/09/08 08:30:05;;;;;;;4.35;2.58;;;22.70;94.40;;;;;;5018202;28;45119;-65
2023/09/08 08:32:32;;;;;;;4.40;2.60;;;22.80;94.50;;;;;;5022810;28;47008;-65
2023/09/08 08:35:00;;;;;;;3.17;2.25;;;22.70;94.40;;;;;;5016062;28;45281;-65
2023/09/08 08:37:27;;;;;;;3.28;2.17;;;22.80;94.50;;;;;;5024252;28;45230;-64
2023/09/08 08:39:54;;;;;;;4.18;2.60;;;22.80;94.40;;;;;;5023200;28;45111;-65
2023/09/08 08:42:22;;;;;;;3.42;2.40;;;22.80;94.30;;;;;;5018084;28;47017;-64
2023/09/08 08:44:49;;;;;;;3.00;2.10;;;22.80;94.30;;;;;;5023633;28;44677;-65
2023/09/08 08:47:17;;;;;;;4.05;2.40;;;22.80;94.20;;;;;;5021990;28;45384;-65
2023/09/08 08:49:46;;;;;;;4.68;2.45;;;22.80;94.20;;;;;;5024732;28;45105;-65
2023/09/08 08:52:17;;;;;;;3.00;2.13;;;22.80;94.30;;;;;;5018470;28;46217;-65
2023/09/08 08:54:46;;;;;;;2.70;2.15;;;22.80;94.40;;;;;;5021700;28;45182;-65
2023/09/08 08:57:13;;;;;;;3.40;2.50;;;22.80;94.40;;;;;;5017145;28;45179;-65
2023/09/08 08:59:41;;;;;;;3.08;2.50;;;22.80;94.40;;;;;;5025563;28;45193;-64
2023/09/08 09:02:10;;;;;;;3.25;2.30;;;22.80;94.40;;;;;;5019036;28;45425;-65
2023/09/08 09:04:38;;;;;;;2.33;2.10;;;22.80;94.30;;;;;;5016413;28;45353;-64
2023/09/08 09:07:07;;;;;;;3.95;2.38;;;22.80;94.40;;;;;;5024686;28;45187;-64
2023/09/08 09:09:35;;;;;;;3.17;2.13;;;22.90;94.30;;;;;;5024389;28;45244;-64
2023/09/08 09:12:02;;;;;;;3.75;2.40;;;22.90;94.10;;;;;;5020254;28;48172;-64
2023/09/08 09:14:33;;;;;;;3.08;2.25;;;22.90;94.10;;;;;;5023146;28;45396;-64
2023/09/08 09:17:01;;;;;;;3.00;2.20;;;22.90;93.90;;;;;;5020659;28;45226;-64
2023/09/08 09:19:29;;;;;;;5.25;2.22;;;22.90;94.10;;;;;;5023034;28;45091;-64
2023/09/08 09:21:57;;;;;;;5.90;3.35;;;22.90;94.10;;;;;;5016984;28;46603;-64
2023/09/08 09:24:32;;;;;;;5.40;3.38;;;22.90;94.00;;;;;;5012518;28;45214;-64
2023/09/08 09:27:00;;;;;;;6.55;2.83;;;22.80;94.10;;;;;;5019433;28;45411;-64
2023/09/08 09:29:29;;;;;;;5.03;3.15;;;22.70;94.20;;;;;;5015520;28;45091;-64
2023/09/08 09:31:57;;;;;;;4.43;2.17;;;22.70;94.10;;;;;;5015508;28;45459;-64
2023/09/08 09:34:25;;;;;;;4.30;2.80;;;22.60;94.80;;;;;;5024617;28;45336;-64
2023/09/08 09:36:52;;;;;;;3.30;2.75;;;22.60;94.70;;;;;;5013815;28;45147;-61
2023/09/08 09:39:21;;;;;;;4.00;2.63;;;22.60;95.00;;;;;;5016180;28;45253;-63
2023/09/08 09:41:48;;;;;;;4.03;2.63;;;22.60;95.00;;;;;;5006418;28;47416;-63
2023/09/08 09:44:17;;;;;;;6.30;3.17;;;22.60;95.00;;;;;;5005791;28;45366;-63
2023/09/08 09:46:47;;;;;;;3.20;2.55;;;22.60;95.00;;;;;;5008748;28;45245;-63
2023/09/08 09:49:14;;;;;;;4.65;3.00;;;22.60;94.80;;;;;;5011430;28;45260;-63
2023/09/08 09:51:43;;;;;;;4.57;3.08;;;22.60;95.00;;;;;;5010613;28;45296;-65
2023/09/08 09:54:09;;;;;;;8.35;3.00;;;22.50;95.20;;;;;;5008938;28;45195;-64
2023/09/08 09:56:39;;;;;;;7.60;3.33;;;22.60;95.10;;;;;;5010210;28;45297;-64
2023/09/08 09:59:07;;;;;;;5.80;2.30;;;22.50;95.10;;;;;;5013898;28;45042;-65
2023/09/08 10:01:36;;;;;;;6.63;3.45;;;22.50;95.40;;;;;;5013404;28;45139;-60
2023/09/08 10:04:04;;;;;;;7.97;3.00;;;22.60;97.00;;;;;;5015112;28;45143;-61
2023/09/08 10:06:33;;;;;;;4.05;2.92;;;22.60;98.30;;;;;;5018909;28;45452;-59
2023/09/08 10:09:02;;;;;;;4.53;2.90;;;22.60;98.40;;;;;;5015746;28;45162;-60
2023/09/08 10:11:31;;;;;;;12.18;3.03;;;22.60;97.70;;;;;;5005484;28;47300;-55
2023/09/08 10:14:00;;;;;;;6.05;2.80;;;22.80;97.60;;;;;;5009448;28;45771;-55
2023/09/08 10:16:29;;;;;;;7.90;2.40;;;22.70;97.60;;;;;;5009394;28;45229;-55
2023/09/08 10:18:59;;;;;;;6.10;2.63;;;22.70;97.50;;;;;;5014357;28;45246;-55
2023/09/08 10:21:27;;;;;;;9.55;2.30;;;22.60;97.70;;;;;;5018210;28;48608;-55
2023/09/08 10:24:00;;;;;;;6.03;2.78;;;22.60;98.00;;;;;;5004933;28;45328;-55
2023/09/08 10:26:28;;;;;;;7.32;2.58;;;22.60;98.10;;;;;;5013267;28;45307;-54
2023/09/08 10:28:56;;;;;;;4.85;2.30;;;22.60;98.40;;;;;;5023113;28;45316;-54
2023/09/08 10:31:26;;;;;;;3.55;2.75;;;22.50;98.40;;;;;;5016634;28;45411;-54
2023/09/08 10:33:54;;;;;;;8.57;2.90;;;22.60;98.40;;;;;;5018739;28;45170;-54
2023/09/08 10:36:23;;;;;;;4.63;2.28;;;22.60;98.50;;;;;;5018126;28;45072;-54
2023/09/08 10:38:51;;;;;;;3.72;2.45;;;22.60;98.70;;;;;;5017172;28;45062;-54
2023/09/08 10:41:31;;;;;;;3.67;2.03;;;22.60;98.70;;;;;;5021840;28;45341;-55
2023/09/08 10:44:02;;;;;;;3.63;2.60;;;22.50;99.30;;;;;;5023162;28;45167;-54
2023/09/08 10:46:29;;;;;;;5.90;3.00;;;22.50;99.70;;;;;;5020298;28;45183;-54
2023/09/08 10:49:03;;;;;;;3.78;2.20;;;22.50;99.60;;;;;;5022262;28;45421;-54
2023/09/08 10:51:31;;;;;;;4.00;2.97;;;22.50;99.70;;;;;;5023729;28;47072;-54
2023/09/08 10:53:58;;;;;;;8.18;3.45;;;22.50;99.40;;;;;;5023717;28;45079;-54
2023/09/08 10:56:29;;;;;;;3.58;2.70;;;22.50;99.20;;;;;;5021044;28;45116;-54
2023/09/08 10:58:55;;;;;;;7.78;2.75;;;22.50;99.80;;;;;;5015950;28;44924;-54
2023/09/08 11:01:26;;;;;;;3.45;2.60;;;22.50;99.90;;;;;;5022887;28;46227;-54
2023/09/08 11:03:53;;;;;;;3.53;2.38;;;22.50;99.90;;;;;;5023795;28;45187;-54
2023/09/08 11:06:22;;;;;;;4.78;2.92;;;22.50;99.90;;;;;;5023016;28;45059;-54
2023/09/08 11:08:55;;;;;;;4.00;2.63;;;22.50;99.50;;;;;;5021837;28;45100;-54
2023/09/08 11:11:22;;;;;;;3.35;2.22;;;22.50;99.90;;;;;;5023348;28;45222;-54
2023/09/08 11:13:49;;;;;;;5.05;2.63;;;22.50;99.90;;;;;;5023522;28;45124;-54
2023/09/08 11:16:17;;;;;;;3.55;2.33;;;22.50;99.90;;;;;;5020472;28;45399;-54
2023/09/08 11:18:44;;;;;;;4.10;2.40;;;22.50;99.90;;;;;;5022763;28;45310;-54
2023/09/08 11:21:11;;;;;;;3.47;2.72;;;22.60;99.90;;;;;;5023758;28;46305;-54
2023/09/08 11:23:40;;;;;;;3.50;2.13;;;22.60;99.90;;;;;;5023552;28;45204;-54
2023/09/08 11:26:09;;;;;;;4.10;2.30;;;22.60;99.90;;;;;;5018686;28;45137;-54
2023/09/08 11:28:36;;;;;;;3.85;3.10;;;22.60;99.90;;;;;;5023982;28;44778;-54
2023/09/08 11:31:04;;;;;;;4.72;2.15;;;22.60;99.90;;;;;;5018933;28;45120;-54
2023/09/08 11:33:38;;;;;;;4.32;2.50;;;22.60;99.90;;;;;;5021213;28;45212;-54
2023/09/08 11:36:14;;;;;;;3.25;2.20;;;22.60;99.90;;;;;;5013563;28;45135;-54
2023/09/08 11:38:41;;;;;;;3.08;2.50;;;22.60;99.90;;;;;;5023530;28;45089;-55
2023/09/08 11:41:09;;;;;;;3.47;2.10;;;22.60;99.90;;;;;;5021434;28;46242;-54
2023/09/08 11:43:35;;;;;;;4.13;2.30;;;22.60;99.90;;;;;;5015272;28;45054;-55
2023/09/08 11:46:03;;;;;;;2.35;2.03;;;22.60;99.90;;;;;;5013741;28;45122;-54
2023/09/08 11:48:30;;;;;;;3.70;2.50;;;22.60;99.90;;;;;;5014574;28;45048;-55
2023/09/08 11:50:57;;;;;;;2.53;2.13;;;22.60;99.90;;;;;;5020843;28;45162;-54
2023/09/08 11:53:24;;;;;;;3.35;2.30;;;22.60;99.90;;;;;;5023205;28;45238;-55
2023/09/08 11:55:51;;;;;;;3.70;2.58;;;22.60;99.90;;;;;;5020460;28;45141;-55
2023/09/08 11:58:20;;;;;;;3.92;2.83;;;22.60;99.90;;;;;;5015822;28;45456;-55
2023/09/08 12:00:49;;;;;;;3.67;2.30;;;22.60;99.90;;;;;;5014757;28;45208;-54
2023/09/08 12:03:16;;;;;;;3.72;2.25;;;22.60;99.90;;;;;;5018995;28;45329;-55
2023/09/08 12:05:44;;;;;;;4.97;2.40;;;22.60;99.90;;;;;;5021565;28;45090;-55
2023/09/08 12:08:11;;;;;;;2.72;2.30;;;22.60;99.90;;;;;;5016708;28;45030;-55
2023/09/08 12:10:41;;;;;;;3.85;2.45;;;22.60;99.90;;;;;;5021138;28;45289;-54
2023/09/08 12:13:09;;;;;;;4.47;2.28;;;22.60;99.90;;;;;;5020869;28;45195;-55
2023/09/08 12:15:39;;;;;;;2.40;2.13;;;22.60;99.90;;;;;;5014196;28;45186;-55
2023/09/08 12:18:07;;;;;;;2.20;2.00;;;22.60;99.90;;;;;;5002436;28;45298;-55
2023/09/08 12:20:36;;;;;;;5.35;2.22;;;22.70;99.90;;;;;;5006649;28;45252;-55
2023/09/08 12:23:05;;;;;;;2.47;2.15;;;22.60;99.90;;;;;;5018308;28;45138;-55
2023/09/08 12:25:32;;;;;;;3.15;1.88;;;22.90;99.50;;;;;;5011339;28;44757;-56
2023/09/08 12:28:00;;;;;;;6.30;3.80;;;22.90;99.40;;;;;;5010969;28;45371;-55
2023/09/08 12:30:29;;;;;;;2.58;2.00;;;22.80;99.40;;;;;;5016780;28;45114;-56
2023/09/08 12:32:59;;;;;;;6.47;2.30;;;22.70;99.70;;;;;;5007405;28;45084;-55
2023/09/08 12:35:28;;;;;;;5.07;2.95;;;22.70;99.80;;;;;;5014793;28;45214;-56
2023/09/08 12:37:58;;;;;;;3.08;2.33;;;22.70;99.80;;;;;;5022003;28;45170;-55
2023/09/08 12:40:25;;;;;;;2.88;2.40;;;22.70;99.80;;;;;;5014724;28;45118;-56
2023/09/08 12:42:51;;;;;;;4.57;2.03;;;22.70;99.70;;;;;;5016207;28;45116;-56
2023/09/08 12:45:19;;;;;;;5.03;2.53;;;22.70;99.90;;;;;;5014534;28;45182;-56
2023/09/08 12:47:46;;;;;;;6.10;2.38;;;22.70;99.60;;;;;;5008030;28;45412;-55